^^
Cohasset Weather Station Historical Data
 
Daily Summary for May 25, 2018 Units:  English    Metric   Both
Daily Weekly Monthly Yearly Custom
  Current: High: Low: Average:
Temperature: 46.2 °F 47.8 °F 46.2 °F 47.1 °F
Dew Point: 43.4 °F 45.0 °F 43.4 °F 44.2 °F
Humidity: 90% 91% 89% 90%
Wind Speed: 0.0mph 3.5mph 0.0mph 0.2mph
Wind Gust: 0.0mph 3.5mph - -
WindCalm - - South
Pressure: 30.11 in 30.22 in 30.09 in -
Precipitation: 0.52 in      
Historical Graphs
 
 
Tabular Data for May 25, 2018
Time Temperature Dew Point Pressure Wind Wind Speed Wind Gust Humidity Rainfall Rate (Hourly) solar
12:05 46.6 °F 44.1 °F 30.10 in SSW 3.5 mph   91% 0.00 in WeatherDisplay:10.37 W/m2
12:07 46.6 °F 44.1 °F 30.10 in Calm     91% 0.00 in WeatherDisplay:10.37 W/m2
12:09 46.6 °F 44.1 °F 30.10 in Calm     91% 0.00 in WeatherDisplay:10.37 W/m2
12:14 46.6 °F 44.1 °F 30.11 in SSW 3.5 mph 3.5 mph 91% 0.00 in WeatherDisplay:10.37 W/m2
12:19 46.4 °F 43.9 °F 30.11 in Calm     91% 0.00 in WeatherDisplay:10.37 W/m2
12:24 46.4 °F 43.9 °F 30.11 in Calm     91% 0.00 in WeatherDisplay:10.37 W/m2
12:29 46.4 °F 43.9 °F 30.11 in Calm     91% 0.00 in WeatherDisplay:10.37 W/m2
12:34 46.6 °F 44.1 °F 30.11 in SSE 1.5 mph 1.5 mph 91% 0.00 in WeatherDisplay:10.37 W/m2
12:39 46.6 °F 44.1 °F 30.11 in Calm     91% 0.00 in WeatherDisplay:10.37 W/m2
12:44 46.6 °F 44.1 °F 30.11 in Calm     91% 0.00 in WeatherDisplay:10.37 W/m2
12:49 46.6 °F 44.1 °F 30.11 in Calm     91% 0.00 in WeatherDisplay:10.37 W/m2
12:54 46.8 °F 44.0 °F 30.11 in Calm     90% 0.00 in WeatherDisplay:10.37 W/m2
12:59 46.8 °F 44.0 °F 30.11 in Calm     90% 0.00 in WeatherDisplay:10.37 W/m2
13:04 46.8 °F 44.0 °F 30.11 in SW 2.3 mph 2.3 mph 90% 0.00 in WeatherDisplay:10.37 W/m2
13:09 46.6 °F 43.8 °F 30.11 in SSW 2.3 mph 2.3 mph 90% 0.00 in WeatherDisplay:10.37 W/m2
13:15 46.6 °F 43.8 °F 30.11 in Calm     90% 0.00 in WeatherDisplay:10.37 W/m2
13:20 46.6 °F 43.8 °F 30.11 in Calm     90% 0.00 in WeatherDisplay:10.37 W/m2
13:25 46.6 °F 43.8 °F 30.11 in ENE 2.3 mph   90% 0.00 in WeatherDisplay:10.37 W/m2
13:30 46.6 °F 43.8 °F 30.12 in Calm   2.0 mph 90% 0.00 in WeatherDisplay:10.37 W/m2
13:35 46.6 °F 43.8 °F 30.12 in South 1.2 mph   90% 0.00 in WeatherDisplay:10.37 W/m2
13:40 46.6 °F 43.8 °F 30.12 in Calm     90% 0.00 in WeatherDisplay:10.37 W/m2
13:45 46.8 °F 44.0 °F 30.12 in Calm     90% 0.00 in WeatherDisplay:10.37 W/m2
13:50 46.8 °F 44.0 °F 30.12 in Calm     90% 0.00 in WeatherDisplay:10.37 W/m2
13:55 46.8 °F 44.0 °F 30.12 in Calm     90% 0.00 in WeatherDisplay:10.37 W/m2
14:00 46.8 °F 44.0 °F 30.12 in Calm     90% 0.00 in WeatherDisplay:10.37 W/m2
14:05 46.8 °F 44.0 °F 30.13 in Calm     90% 0.01 in WeatherDisplay:10.37 W/m2
14:10 46.6 °F 43.8 °F 30.13 in Calm     90% 0.01 in WeatherDisplay:10.37 W/m2
14:15 46.4 °F 43.6 °F 30.12 in Calm     90% 0.01 in WeatherDisplay:10.37 W/m2
14:20 46.6 °F 43.8 °F 30.12 in Calm     90% 0.01 in WeatherDisplay:10.37 W/m2
14:25 46.6 °F 43.8 °F 30.12 in Calm     90% 0.01 in WeatherDisplay:10.37 W/m2
14:30 46.6 °F 43.8 °F 30.13 in Calm     90% 0.01 in WeatherDisplay:10.37 W/m2
14:35 46.8 °F 44.0 °F 30.13 in Calm     90% 0.01 in WeatherDisplay:10.37 W/m2
14:40 46.8 °F 43.7 °F 30.13 in Calm     89% 0.01 in WeatherDisplay:10.37 W/m2
14:45 46.9 °F 43.8 °F 30.13 in Calm     89% 0.01 in WeatherDisplay:10.37 W/m2
14:50 46.9 °F 43.8 °F 30.13 in Calm     89% 0.01 in WeatherDisplay:10.37 W/m2
14:55 46.9 °F 43.8 °F 30.13 in Calm     89% 0.01 in WeatherDisplay:10.37 W/m2
15:00 47.1 °F 44.0 °F 30.13 in Calm     89% 0.01 in WeatherDisplay:10.37 W/m2
15:05 47.3 °F 44.2 °F 30.13 in Calm     89% 0.00 in WeatherDisplay:10.37 W/m2
15:10 47.3 °F 44.2 °F 30.13 in Calm     89% 0.00 in WeatherDisplay:10.37 W/m2
15:15 47.3 °F 44.2 °F 30.13 in Calm     89% 0.00 in WeatherDisplay:10.37 W/m2
15:20 47.1 °F 44.0 °F 30.13 in Calm     89% 0.00 in WeatherDisplay:10.37 W/m2
15:25 47.1 °F 44.0 °F 30.13 in Calm     89% 0.01 in WeatherDisplay:10.37 W/m2
15:30 47.3 °F 44.2 °F 30.12 in Calm     89% 0.01 in WeatherDisplay:10.37 W/m2
16:12 47.7 °F 44.6 °F 30.11 in Calm     89% 0.01 in WeatherDisplay:10.37 W/m2
16:17 47.7 °F 44.6 °F 30.11 in Calm     89% 0.01 in WeatherDisplay:10.37 W/m2
16:22 47.7 °F 44.6 °F 30.11 in Calm     89% 0.01 in WeatherDisplay:10.37 W/m2
16:27 47.7 °F 44.6 °F 30.22 in Calm     89% 0.00 in WeatherDisplay:10.37 W/m2
16:32 47.7 °F 44.6 °F 30.11 in Calm     89% 0.00 in WeatherDisplay:10.37 W/m2
16:37 47.7 °F 44.6 °F 30.11 in Calm     89% 0.00 in WeatherDisplay:10.37 W/m2
16:42 47.7 °F 44.6 °F 30.11 in Calm     89% 0.00 in WeatherDisplay:10.37 W/m2
16:47 47.7 °F 44.6 °F 30.11 in Calm     89% 0.00 in WeatherDisplay:10.37 W/m2
16:52 47.7 °F 44.6 °F 30.11 in Calm     89% 0.00 in WeatherDisplay:10.37 W/m2
16:57 47.7 °F 44.6 °F 30.11 in Calm     89% 0.00 in WeatherDisplay:10.37 W/m2
17:02 47.7 °F 44.6 °F 30.11 in Calm     89% 0.00 in WeatherDisplay:10.37 W/m2
17:07 47.7 °F 44.6 °F 30.11 in Calm     89% 0.00 in WeatherDisplay:10.37 W/m2
17:12 47.7 °F 44.6 °F 30.11 in Calm     89% 0.00 in WeatherDisplay:10.37 W/m2
17:17 47.7 °F 44.6 °F 30.11 in Calm     89% 0.00 in WeatherDisplay:10.37 W/m2
17:22 47.5 °F 44.4 °F 30.11 in Calm     89% 0.00 in WeatherDisplay:10.37 W/m2
17:27 47.5 °F 44.4 °F 30.11 in Calm     89% 0.00 in WeatherDisplay:10.37 W/m2
17:32 47.5 °F 44.4 °F 30.11 in Calm     89% 0.00 in WeatherDisplay:10.37 W/m2
17:37 47.5 °F 44.4 °F 30.11 in Calm     89% 0.00 in WeatherDisplay:10.37 W/m2
17:42 47.7 °F 44.6 °F 30.10 in Calm     89% 0.00 in WeatherDisplay:10.37 W/m2
17:48 47.7 °F 44.6 °F 30.10 in Calm     89% 0.00 in WeatherDisplay:10.37 W/m2
17:53 47.7 °F 44.6 °F 30.11 in Calm     89% 0.00 in WeatherDisplay:10.37 W/m2
17:58 47.7 °F 44.6 °F 30.11 in Calm     89% 0.00 in WeatherDisplay:10.37 W/m2
18:03 47.7 °F 44.6 °F 30.10 in Calm     89% 0.00 in WeatherDisplay:10.37 W/m2
18:08 47.7 °F 44.6 °F 30.10 in Calm     89% 0.00 in WeatherDisplay:10.37 W/m2
18:13 47.8 °F 44.7 °F 30.10 in Calm     89% 0.00 in WeatherDisplay:10.37 W/m2
18:18 47.8 °F 44.7 °F 30.10 in Calm     89% 0.00 in WeatherDisplay:10.37 W/m2
18:23 47.8 °F 44.7 °F 30.10 in Calm     89% 0.00 in WeatherDisplay:10.37 W/m2
18:28 47.8 °F 44.7 °F 30.10 in Calm     89% 0.00 in WeatherDisplay:10.37 W/m2
18:33 47.8 °F 45.0 °F 30.10 in Calm     90% 0.00 in WeatherDisplay:10.37 W/m2
18:38 47.8 °F 45.0 °F 30.10 in Calm     90% 0.00 in WeatherDisplay:10.37 W/m2
18:43 47.8 °F 45.0 °F 30.10 in Calm     90% 0.00 in WeatherDisplay:10.37 W/m2
18:48 47.8 °F 45.0 °F 30.10 in Calm     90% 0.00 in WeatherDisplay:10.37 W/m2
18:53 47.7 °F 44.9 °F 30.09 in Calm     90% 0.00 in WeatherDisplay:10.37 W/m2
18:58 47.7 °F 44.9 °F 30.09 in Calm     90% 0.00 in WeatherDisplay:10.37 W/m2
19:03 47.5 °F 44.7 °F 30.10 in Calm     90% 0.00 in WeatherDisplay:10.37 W/m2
19:08 47.3 °F 44.5 °F 30.10 in Calm     90% 0.00 in WeatherDisplay:10.37 W/m2
19:13 47.3 °F 44.5 °F 30.10 in Calm     90% 0.00 in WeatherDisplay:10.37 W/m2
19:18 47.3 °F 44.5 °F 30.09 in Calm     90% 0.00 in WeatherDisplay:10.37 W/m2
19:23 47.3 °F 44.5 °F 30.09 in Calm     90% 0.00 in WeatherDisplay:10.37 W/m2
19:28 47.3 °F 44.5 °F 30.09 in Calm     90% 0.00 in WeatherDisplay:10.37 W/m2
19:33 47.1 °F 44.3 °F 30.09 in Calm     90% 0.00 in WeatherDisplay:10.37 W/m2
19:39 46.9 °F 44.1 °F 30.09 in Calm     90% 0.00 in WeatherDisplay:10.37 W/m2
19:44 46.9 °F 44.1 °F 30.09 in Calm     90% 0.00 in WeatherDisplay:10.37 W/m2
19:49 46.8 °F 44.0 °F 30.09 in Calm     90% 0.00 in WeatherDisplay:10.37 W/m2
19:54 46.6 °F 43.8 °F 30.09 in Calm     90% 0.01 in WeatherDisplay:10.37 W/m2
19:59 46.6 °F 43.8 °F 30.09 in Calm     90% 0.01 in WeatherDisplay:10.37 W/m2
20:04 46.6 °F 43.8 °F 30.10 in Calm     90% 0.01 in WeatherDisplay:10.37 W/m2
20:09 46.6 °F 43.8 °F 30.10 in Calm     90% 0.01 in WeatherDisplay:10.37 W/m2
20:14 46.6 °F 43.8 °F 30.10 in Calm     90% 0.01 in WeatherDisplay:10.37 W/m2
20:19 46.6 °F 43.8 °F 30.10 in Calm     90% 0.02 in WeatherDisplay:10.37 W/m2
20:24 46.4 °F 43.6 °F 30.10 in Calm     90% 0.02 in WeatherDisplay:10.37 W/m2
20:29 46.4 °F 43.6 °F 30.10 in Calm     90% 0.02 in WeatherDisplay:10.37 W/m2
20:34 46.2 °F 43.4 °F 30.10 in Calm     90% 0.02 in WeatherDisplay:10.37 W/m2
20:39 46.2 °F 43.4 °F 30.11 in Calm     90% 0.03 in WeatherDisplay:10.37 W/m2
20:44 46.2 °F 43.4 °F 30.11 in Calm     90% 0.04 in WeatherDisplay:10.37 W/m2
20:49 46.2 °F 43.4 °F 30.11 in Calm     90% 0.04 in WeatherDisplay:10.37 W/m2
Cohasset, California, USA
Compliments of Weather Underground - 1.25 mb